createdAt,value
2023-03-26T00:01:46.437Z,98726.63
2023-03-26T00:04:14.285Z,98728.78
2023-03-26T00:06:42.005Z,98715.09
2023-03-26T00:09:13.248Z,98688.75
2023-03-26T00:11:41.304Z,98729.53
2023-03-26T00:14:13.832Z,98741.97
2023-03-26T00:16:43.322Z,98747.03
2023-03-26T00:19:11.855Z,98746.34
2023-03-26T00:21:39.894Z,98745.53
2023-03-26T00:24:10.150Z,98761.13
2023-03-26T00:26:38.907Z,98762.72
2023-03-26T00:29:06.778Z,98766.63
2023-03-26T00:31:35.685Z,98784.53
2023-03-26T00:34:05.769Z,98779.09
2023-03-26T00:36:35.746Z,98781.34
2023-03-26T00:39:05.527Z,98786.66
2023-03-26T00:41:36.867Z,98759.75
2023-03-26T00:44:04.833Z,98759.84
2023-03-26T00:46:32.837Z,98736.06
2023-03-26T00:49:03.804Z,98733.03
2023-03-26T00:51:35.052Z,98731.28
2023-03-26T00:54:02.769Z,98731.88
2023-03-26T00:56:30.792Z,98736.47
2023-03-26T00:59:00.178Z,98739.88
2023-03-26T01:01:30.318Z,98749.66
2023-03-26T01:04:08.846Z,98747.66
2023-03-26T01:06:42.085Z,98746.25
2023-03-26T01:09:16.046Z,98754.84
2023-03-26T01:11:44.863Z,98758.25
2023-03-26T01:14:14.058Z,98764.63
2023-03-26T01:16:46.034Z,98771.16
2023-03-26T01:19:20.678Z,98772.41
2023-03-26T01:21:50.181Z,98772.41
2023-03-26T01:24:19.317Z,98776.81
2023-03-26T01:27:06.016Z,98763.22
2023-03-26T01:29:42.733Z,98766.22
2023-03-26T01:32:23.048Z,98759.69
2023-03-26T01:35:12.431Z,98770.22
2023-03-26T01:37:52.581Z,98774.03
2023-03-26T01:40:27.572Z,98774.28
2023-03-26T01:43:01.256Z,98775.13
2023-03-26T01:45:33.096Z,98774.94
2023-03-26T01:48:01.364Z,98769.19
2023-03-26T01:50:29.231Z,98770.34
2023-03-26T01:52:57.070Z,98755.63
2023-03-26T01:55:31.749Z,98747.19
2023-03-26T01:58:08.444Z,98738.78
2023-03-26T02:00:43.431Z,98705.66
2023-03-26T02:03:23.972Z,98711.84
2023-03-26T02:05:57.916Z,98703.81
2023-03-26T02:08:35.207Z,98700.88
2023-03-26T02:11:11.521Z,98700.13
2023-03-26T02:13:39.951Z,98706.47
2023-03-26T02:16:11.658Z,98697.94
2023-03-26T02:18:39.660Z,98692.88
2023-03-26T02:21:11.020Z,98664.97
2023-03-26T02:23:40.332Z,98639.84
2023-03-26T02:26:11.397Z,98666.66
2023-03-26T02:28:39.770Z,98665.00
2023-03-26T02:31:09.710Z,98640.13
2023-03-26T02:33:37.868Z,98646.22
2023-03-26T02:36:08.383Z,98647.41
2023-03-26T02:38:36.527Z,98642.34
2023-03-26T02:41:05.450Z,98637.53
2023-03-26T02:43:34.510Z,98631.94
2023-03-26T02:46:02.366Z,98627.31
2023-03-26T02:48:31.323Z,98638.03
2023-03-26T02:50:59.025Z,98647.41
2023-03-26T02:53:29.729Z,98645.63
2023-03-26T02:55:58.043Z,98644.09
2023-03-26T02:58:26.399Z,98616.13
2023-03-26T03:00:56.166Z,98611.69
2023-03-26T03:03:24.502Z,98598.59
2023-03-26T03:05:52.560Z,98589.16
2023-03-26T03:08:21.457Z,98584.78
2023-03-26T03:10:58.014Z,98563.63
2023-03-26T03:13:25.763Z,98561.91
2023-03-26T03:15:56.089Z,98562.28
2023-03-26T03:18:24.106Z,98554.03
2023-03-26T03:20:52.123Z,98548.22
2023-03-26T03:23:19.932Z,98550.91
2023-03-26T03:25:48.747Z,98541.13
2023-03-26T03:28:18.278Z,98537.88
2023-03-26T03:30:47.088Z,98542.47
2023-03-26T03:33:16.242Z,98546.78
2023-03-26T03:35:45.972Z,98527.19
2023-03-26T03:38:13.787Z,98499.28
2023-03-26T03:40:41.524Z,98492.59
2023-03-26T03:43:09.266Z,98476.13
2023-03-26T03:45:37.049Z,98475.56
2023-03-26T03:48:05.089Z,98467.31
2023-03-26T03:50:35.840Z,98454.28
2023-03-26T03:53:05.631Z,98457.00
2023-03-26T03:55:33.456Z,98450.59
2023-03-26T03:58:01.514Z,98454.34
2023-03-26T04:00:30.706Z,98456.16
2023-03-26T04:02:58.790Z,98447.00
2023-03-26T04:05:26.616Z,98459.91
2023-03-26T04:07:55.778Z,98451.53
2023-03-26T04:10:23.523Z,98421.09
2023-03-26T04:12:51.256Z,98435.03
2023-03-26T04:15:19.054Z,98421.69
2023-03-26T04:17:46.784Z,98392.22
2023-03-26T04:20:15.961Z,98346.22
2023-03-26T04:22:44.061Z,98342.75
2023-03-26T04:25:15.538Z,98308.38
2023-03-26T04:27:44.136Z,98285.81
2023-03-26T04:30:16.606Z,98264.34
2023-03-26T04:32:44.700Z,98269.28
2023-03-26T04:35:15.143Z,98268.13
2023-03-26T04:37:44.440Z,98248.06
2023-03-26T04:40:18.374Z,98238.69
2023-03-26T04:42:46.535Z,98234.84
2023-03-26T04:45:15.768Z,98232.47
2023-03-26T04:47:43.560Z,98216.00
2023-03-26T04:50:12.665Z,98212.81
2023-03-26T04:52:41.624Z,98199.97
2023-03-26T04:55:24.870Z,98202.34
2023-03-26T04:57:56.811Z,98196.69
2023-03-26T05:00:24.730Z,98194.75
2023-03-26T05:02:55.877Z,98187.88
2023-03-26T05:05:23.927Z,98187.31
2023-03-26T05:07:51.632Z,98186.63
2023-03-26T05:10:21.417Z,98182.22
2023-03-26T05:12:49.732Z,98193.97
2023-03-26T05:15:17.529Z,98197.00
2023-03-26T05:17:46.365Z,98216.75
2023-03-26T05:20:20.888Z,98223.19
2023-03-26T05:22:49.420Z,98216.09
2023-03-26T05:25:18.100Z,98219.38
2023-03-26T05:27:47.475Z,98221.19
2023-03-26T05:30:16.787Z,98227.53
2023-03-26T05:32:45.182Z,98225.28
2023-03-26T05:35:15.352Z,98235.19
2023-03-26T05:37:44.490Z,98233.66
2023-03-26T05:40:14.700Z,98245.59
2023-03-26T05:42:42.880Z,98244.59
2023-03-26T05:45:13.917Z,98249.56
2023-03-26T05:47:41.858Z,98253.97
2023-03-26T05:50:11.205Z,98263.91
2023-03-26T05:52:39.276Z,98275.75
2023-03-26T05:55:08.145Z,98284.34
2023-03-26T05:57:36.751Z,98286.16
2023-03-26T06:00:07.677Z,98290.81
2023-03-26T06:02:36.987Z,98277.91
2023-03-26T06:05:05.486Z,98306.03
2023-03-26T06:07:34.019Z,98307.94
2023-03-26T06:10:02.730Z,98308.66
2023-03-26T06:12:30.427Z,98300.06
2023-03-26T06:14:58.054Z,98300.06
2023-03-26T06:17:25.715Z,98300.06
2023-03-26T06:19:54.799Z,98297.81
2023-03-26T06:22:22.603Z,98284.69
2023-03-26T06:24:50.247Z,98292.13
2023-03-26T06:27:17.889Z,98285.50
2023-03-26T06:29:45.631Z,98283.81
2023-03-26T06:32:19.769Z,98280.19
2023-03-26T06:34:48.461Z,98275.34
2023-03-26T06:37:17.994Z,98275.91
2023-03-26T06:39:46.009Z,98268.25
2023-03-26T06:42:13.936Z,98267.22
2023-03-26T06:44:41.681Z,98272.28
2023-03-26T06:47:09.417Z,98265.97
2023-03-26T06:49:38.285Z,98265.28
2023-03-26T06:52:06.215Z,98264.63
2023-03-26T06:54:35.352Z,98257.72
2023-03-26T06:57:03.202Z,98246.19
2023-03-26T06:59:31.236Z,98262.25
2023-03-26T07:01:58.971Z,98261.47
2023-03-26T07:04:26.749Z,98219.63
2023-03-26T07:06:54.903Z,98258.94
2023-03-26T07:09:22.951Z,98243.03
2023-03-26T07:11:52.065Z,98240.53
2023-03-26T07:14:19.710Z,98241.91
2023-03-26T07:16:47.432Z,98235.47
2023-03-26T07:19:15.179Z,98228.00
2023-03-26T07:21:43.492Z,98235.00
2023-03-26T07:24:13.781Z,98230.94
2023-03-26T07:26:51.744Z,98220.97
2023-03-26T07:29:31.944Z,98216.56
2023-03-26T07:32:09.455Z,98213.53
2023-03-26T07:34:50.240Z,98210.38
2023-03-26T07:37:29.394Z,98217.81
2023-03-26T07:40:03.429Z,98207.66
2023-03-26T07:42:49.711Z,98211.94
2023-03-26T07:45:27.225Z,98200.41
2023-03-26T07:47:57.008Z,98201.19
2023-03-26T07:50:26.381Z,98196.00
2023-03-26T07:52:54.768Z,98189.34
2023-03-26T07:55:23.030Z,98192.06
2023-03-26T07:58:00.372Z,98158.84
2023-03-26T08:00:35.349Z,98176.47
2023-03-26T08:03:38.417Z,98169.00
2023-03-26T08:06:16.503Z,98174.91
2023-03-26T08:08:54.446Z,98168.78
2023-03-26T08:11:35.703Z,98163.50
2023-03-26T08:14:16.251Z,98165.38
2023-03-26T08:16:52.035Z,98159.06
2023-03-26T08:19:40.751Z,98170.59
2023-03-26T08:22:15.503Z,98173.66
2023-03-26T08:24:53.834Z,98176.56
2023-03-26T08:27:29.578Z,98186.66
2023-03-26T08:30:04.240Z,98192.66
2023-03-26T08:32:34.299Z,98188.47
2023-03-26T08:35:05.048Z,98193.31
2023-03-26T08:37:32.712Z,98206.69
2023-03-26T08:40:00.708Z,98213.69
2023-03-26T08:43:19.184Z,98218.94
2023-03-26T08:46:12.162Z,98231.06
2023-03-26T08:49:17.021Z,98221.47
2023-03-26T08:51:59.769Z,98253.88
2023-03-26T08:54:49.485Z,98263.06
2023-03-26T08:57:41.069Z,98274.56
2023-03-26T09:00:36.552Z,98287.88
2023-03-26T09:03:32.583Z,98286.97
2023-03-26T09:06:35.053Z,98288.91
2023-03-26T09:09:41.617Z,98302.91
2023-03-26T09:12:36.423Z,98312.41
2023-03-26T09:15:36.655Z,98313.19
2023-03-26T09:18:36.953Z,98321.91
2023-03-26T09:21:30.545Z,98322.56
2023-03-26T09:24:37.685Z,98328.03
2023-03-26T09:27:16.332Z,98324.34
2023-03-26T09:30:31.580Z,98333.09
2023-03-26T09:33:32.837Z,98336.50
2023-03-26T09:36:31.925Z,98343.13
2023-03-26T09:39:08.953Z,98348.97
2023-03-26T09:41:43.657Z,98362.28
2023-03-26T09:44:39.247Z,98354.22
2023-03-26T09:47:37.466Z,98360.56
2023-03-26T09:50:24.730Z,98363.94
2023-03-26T09:53:05.314Z,98367.16
2023-03-26T09:56:00.446Z,98374.06
2023-03-26T09:58:42.940Z,98377.28
2023-03-26T10:01:18.357Z,98395.13
2023-03-26T10:04:14.906Z,98407.59
2023-03-26T10:06:54.177Z,98412.63
2023-03-26T10:09:39.391Z,98428.94
2023-03-26T10:12:13.924Z,98436.06
2023-03-26T10:14:47.580Z,98439.56
2023-03-26T10:17:33.649Z,98441.44
2023-03-26T10:20:20.954Z,98460.69
2023-03-26T10:22:57.616Z,98466.06
2023-03-26T10:25:56.305Z,98463.59
2023-03-26T10:28:40.777Z,98484.63
2023-03-26T10:31:27.218Z,98500.47
2023-03-26T10:34:06.332Z,98509.81
2023-03-26T10:36:36.670Z,98523.19
2023-03-26T10:39:38.026Z,98534.38
2023-03-26T10:42:23.046Z,98544.97
2023-03-26T10:45:15.467Z,98548.66
2023-03-26T10:47:58.306Z,98570.09
2023-03-26T10:50:41.932Z,98575.75
2023-03-26T10:53:19.259Z,98587.72
2023-03-26T10:55:53.009Z,98598.84
2023-03-26T10:58:26.452Z,98609.38
2023-03-26T11:01:00.737Z,98625.47
2023-03-26T11:03:46.948Z,98633.69
2023-03-26T11:06:26.504Z,98642.66
2023-03-26T11:09:04.165Z,98641.16
2023-03-26T11:11:38.494Z,98645.84
2023-03-26T11:14:24.317Z,98646.31
2023-03-26T11:17:03.963Z,98643.81
2023-03-26T11:19:40.345Z,98640.91
2023-03-26T11:22:18.740Z,98652.38
2023-03-26T11:25:21.088Z,98656.41
2023-03-26T11:28:01.641Z,98667.13
2023-03-26T11:30:42.754Z,98668.19
2023-03-26T11:33:14.147Z,98680.25
2023-03-26T11:35:46.844Z,98682.06
2023-03-26T11:38:20.755Z,98682.78
2023-03-26T11:40:51.567Z,98714.78
2023-03-26T11:43:23.243Z,98733.69
2023-03-26T11:45:54.031Z,98726.59
2023-03-26T11:48:28.638Z,98748.94
2023-03-26T11:51:03.015Z,98768.75
2023-03-26T11:53:34.564Z,98777.91
2023-03-26T11:56:08.088Z,98799.63
2023-03-26T11:58:43.755Z,98820.50
2023-03-26T12:01:17.803Z,98816.31
2023-03-26T12:03:57.243Z,98831.63
2023-03-26T12:06:27.495Z,98876.59
2023-03-26T12:08:56.866Z,98918.94
2023-03-26T12:11:28.205Z,98986.91
2023-03-26T12:14:00.308Z,99008.84
2023-03-26T12:16:29.983Z,98993.19
2023-03-26T12:19:04.119Z,99045.44
2023-03-26T12:21:46.022Z,99075.06
2023-03-26T12:24:28.051Z,99088.78
2023-03-26T12:27:02.025Z,99126.53
2023-03-26T12:29:34.310Z,99125.28
2023-03-26T12:32:14.390Z,99074.31
2023-03-26T12:34:42.745Z,99127.03
2023-03-26T12:37:35.069Z,99172.34
2023-03-26T12:40:27.136Z,99226.97
2023-03-26T12:44:48.827Z,99225.69
2023-03-26T12:45:44.773Z,99216.47
2023-03-26T12:48:16.808Z,99232.78
2023-03-26T12:50:57.318Z,99253.09
2023-03-26T12:53:38.913Z,99263.09
2023-03-26T12:56:19.742Z,99259.34
2023-03-26T12:59:03.909Z,99291.31
2023-03-26T13:01:45.711Z,99308.22
2023-03-26T13:04:51.895Z,99265.00
2023-03-26T13:07:35.143Z,99285.91
2023-03-26T13:10:26.625Z,99315.19
2023-03-26T13:13:09.840Z,99328.81
2023-03-26T13:15:44.124Z,99331.56
2023-03-26T13:18:24.213Z,99383.72
2023-03-26T13:20:59.469Z,99464.50
2023-03-26T13:23:46.049Z,99461.69
2023-03-26T13:26:26.912Z,99464.31
2023-03-26T13:29:06.905Z,99482.72
2023-03-26T13:31:41.180Z,99477.69
2023-03-26T13:34:19.505Z,99517.91
2023-03-26T13:37:00.481Z,99485.25
2023-03-26T13:39:36.117Z,99525.91
2023-03-26T13:42:18.218Z,99536.66
2023-03-26T13:45:05.072Z,99512.78
2023-03-26T13:47:36.611Z,99510.13
2023-03-26T13:50:15.450Z,99521.78
2023-03-26T13:52:49.258Z,99543.31
2023-03-26T13:55:26.319Z,99564.19
2023-03-26T13:58:03.067Z,99562.94
2023-03-26T14:00:54.480Z,99600.19
2023-03-26T14:03:30.072Z,99612.88
2023-03-26T14:06:05.650Z,99628.56
2023-03-26T14:08:38.936Z,99641.81
2023-03-26T14:11:12.389Z,99645.19
2023-03-26T14:13:47.420Z,99684.53
2023-03-26T14:16:19.397Z,99664.47
2023-03-26T14:18:53.319Z,99681.34
2023-03-26T14:21:36.580Z,99702.16
2023-03-26T14:24:24.647Z,99723.03
2023-03-26T14:27:05.540Z,99730.06
2023-03-26T14:29:56.304Z,99722.47
2023-03-26T14:33:01.176Z,99723.66
2023-03-26T14:35:37.768Z,99764.94
2023-03-26T14:38:33.898Z,99786.75
2023-03-26T14:41:20.975Z,99761.28
2023-03-26T14:44:18.221Z,99773.50
2023-03-26T14:47:14.518Z,99752.88
2023-03-26T14:50:20.566Z,99763.31
2023-03-26T14:52:50.400Z,99784.38
2023-03-26T14:55:33.814Z,99756.53
2023-03-26T14:58:27.827Z,99768.19
2023-03-26T15:01:18.620Z,99817.50
2023-03-26T15:04:21.299Z,99824.19
2023-03-26T15:07:33.958Z,99855.88
2023-03-26T15:10:16.855Z,99894.72
2023-03-26T15:12:58.941Z,99922.94
2023-03-26T15:15:54.378Z,99927.16
2023-03-26T15:18:52.990Z,99913.78
2023-03-26T15:21:43.268Z,99917.16
2023-03-26T15:25:04.162Z,99930.84
2023-03-26T15:27:54.948Z,99918.47
2023-03-26T15:30:57.875Z,99923.34
2023-03-26T15:34:12.133Z,99936.63
2023-03-26T15:37:17.717Z,99953.56
2023-03-26T15:40:12.775Z,99959.97
2023-03-26T15:42:54.359Z,99955.94
2023-03-26T15:45:37.823Z,99958.47
2023-03-26T15:48:44.223Z,99980.03
2023-03-26T15:51:47.295Z,100007.13
2023-03-26T15:54:24.105Z,100002.47
2023-03-26T15:57:07.166Z,100064.00
2023-03-26T15:59:44.260Z,100040.31
2023-03-26T16:02:26.366Z,100042.06
2023-03-26T16:04:55.849Z,100049.03
2023-03-26T16:07:41.392Z,100051.88
2023-03-26T16:10:28.034Z,100046.09
2023-03-26T16:13:12.705Z,100101.28
2023-03-26T16:15:41.449Z,100165.47
2023-03-26T16:18:30.010Z,100212.50
2023-03-26T16:21:05.413Z,100225.38
2023-03-26T16:23:47.789Z,100232.84
2023-03-26T16:26:20.792Z,100242.81
2023-03-26T16:29:15.858Z,100223.09
2023-03-26T16:32:05.827Z,100227.88
2023-03-26T16:34:42.146Z,100217.09
2023-03-26T16:37:40.878Z,100216.19
2023-03-26T16:40:50.208Z,100202.28
2023-03-26T16:43:42.378Z,100225.00
2023-03-26T16:46:25.017Z,100225.09
2023-03-26T16:48:59.737Z,100236.84
2023-03-26T16:51:43.642Z,100250.78
2023-03-26T16:54:22.115Z,100254.16
2023-03-26T16:56:56.455Z,100261.63
2023-03-26T17:00:05.469Z,100237.69
2023-03-26T17:02:51.304Z,100249.59
2023-03-26T17:05:25.338Z,100241.00
2023-03-26T17:08:02.768Z,100244.25
2023-03-26T17:10:40.053Z,100243.53
2023-03-26T17:13:12.352Z,100253.00
2023-03-26T17:15:49.298Z,100252.53
2023-03-26T17:18:37.652Z,100274.63
2023-03-26T17:21:12.051Z,100302.88
2023-03-26T17:24:01.237Z,100284.22
2023-03-26T17:26:42.228Z,100270.66
2023-03-26T17:29:25.058Z,100332.91
2023-03-26T17:31:59.267Z,100352.81
2023-03-26T17:34:40.298Z,100358.03
2023-03-26T17:37:11.846Z,100362.91
2023-03-26T17:40:36.760Z,100359.19
2023-03-26T17:43:11.097Z,100384.22
2023-03-26T17:45:40.754Z,100403.53
2023-03-26T17:48:16.775Z,100408.88
2023-03-26T17:50:51.681Z,100362.72
2023-03-26T17:53:24.449Z,100405.66
2023-03-26T17:55:53.390Z,100398.38
2023-03-26T17:58:30.101Z,100397.06
2023-03-26T18:01:06.625Z,100398.19
2023-03-26T18:03:39.154Z,100401.31
2023-03-26T18:06:10.636Z,100440.19
2023-03-26T18:08:49.572Z,100441.50
2023-03-26T18:11:38.171Z,100436.47
2023-03-26T18:14:20.619Z,100428.38
2023-03-26T18:16:52.490Z,100421.38
2023-03-26T18:19:22.957Z,100414.41
2023-03-26T18:21:54.726Z,100401.47
2023-03-26T18:24:25.517Z,100401.78
2023-03-26T18:27:00.096Z,100388.47
2023-03-26T18:29:31.079Z,100373.56
2023-03-26T18:32:02.615Z,100377.63
2023-03-26T18:34:32.618Z,100376.31
2023-03-26T18:37:17.735Z,100383.31
2023-03-26T18:39:58.978Z,100393.50
2023-03-26T18:42:28.064Z,100403.91
2023-03-26T18:45:00.853Z,100438.59
2023-03-26T18:47:32.729Z,100451.06
2023-03-26T18:50:01.163Z,100458.03
2023-03-26T18:52:31.223Z,100473.38
2023-03-26T18:55:00.099Z,100489.75
2023-03-26T18:57:29.729Z,100502.50
2023-03-26T19:00:09.873Z,100494.06
2023-03-26T19:02:40.023Z,100528.38
2023-03-26T19:05:13.804Z,100522.19
2023-03-26T19:07:41.963Z,100543.84
2023-03-26T19:10:18.555Z,100542.31
2023-03-26T19:12:47.263Z,100536.34
2023-03-26T19:15:17.357Z,100536.84
2023-03-26T19:17:50.800Z,100538.88
2023-03-26T19:20:22.658Z,100534.53
2023-03-26T19:22:51.406Z,100533.88
2023-03-26T19:25:22.549Z,100547.00
2023-03-26T19:27:51.697Z,100548.59
2023-03-26T19:30:30.136Z,100563.09
2023-03-26T19:33:12.246Z,100576.97
2023-03-26T19:35:42.488Z,100588.00
2023-03-26T19:38:27.128Z,100589.22
2023-03-26T19:40:56.880Z,100590.34
2023-03-26T19:43:26.247Z,100599.06
2023-03-26T19:48:49.038Z,100582.25
2023-03-26T19:51:18.410Z,100595.66
2023-03-26T19:51:21.749Z,100565.09
2023-03-26T19:53:54.181Z,100559.78
2023-03-26T19:56:22.886Z,100551.16
2023-03-26T19:58:51.337Z,100547.63
2023-03-26T20:01:21.455Z,100540.19
2023-03-26T20:03:52.855Z,100550.41
2023-03-26T20:06:30.620Z,100548.88
2023-03-26T20:09:06.080Z,100533.59
2023-03-26T20:11:37.990Z,100555.13
2023-03-26T20:14:13.551Z,100563.41
2023-03-26T20:16:43.825Z,100564.63
2023-03-26T20:19:14.879Z,100550.25
2023-03-26T20:21:44.227Z,100551.41
2023-03-26T20:24:14.638Z,100547.19
2023-03-26T20:26:42.820Z,100550.09
2023-03-26T20:29:11.737Z,100545.06
2023-03-26T20:31:41.516Z,100553.28
2023-03-26T20:34:19.938Z,100565.91
2023-03-26T20:36:54.062Z,100556.94
2023-03-26T20:39:22.283Z,100562.34
2023-03-26T20:41:51.268Z,100564.00
2023-03-26T20:44:21.225Z,100558.56
2023-03-26T20:46:50.638Z,100574.50
2023-03-26T20:49:22.090Z,100574.81
2023-03-26T20:51:49.908Z,100584.69
2023-03-26T20:54:20.237Z,100588.38
2023-03-26T20:56:49.077Z,100577.66
2023-03-26T20:59:22.385Z,100577.78
2023-03-26T21:01:51.159Z,100587.16
2023-03-26T21:04:20.848Z,100585.91
2023-03-26T21:06:49.282Z,100571.34
2023-03-26T21:09:19.337Z,100580.34
2023-03-26T21:11:53.809Z,100586.06
2023-03-26T21:14:25.115Z,100574.50
2023-03-26T21:16:53.395Z,100575.63
2023-03-26T21:19:23.434Z,100573.75
2023-03-26T21:22:04.687Z,100569.44
2023-03-26T21:24:50.720Z,100553.38
2023-03-26T21:27:26.430Z,100565.38
2023-03-26T21:29:55.079Z,100578.47
2023-03-26T21:32:24.351Z,100554.72
2023-03-26T21:37:25.674Z,100561.25
2023-03-26T21:39:53.793Z,100568.00
2023-03-26T21:42:22.007Z,100565.75
2023-03-26T21:44:50.572Z,100569.88
2023-03-26T21:47:18.696Z,100571.44
2023-03-26T21:49:46.898Z,100566.81
2023-03-26T21:52:16.454Z,100535.78
2023-03-26T21:54:44.736Z,100502.72
2023-03-26T21:57:25.351Z,100480.41
2023-03-26T22:00:07.420Z,100470.13
2023-03-26T22:02:44.023Z,100452.06
2023-03-26T22:05:16.246Z,100425.63
2023-03-26T22:07:53.922Z,100432.09
2023-03-26T22:10:21.997Z,100422.69
2023-03-26T22:12:49.921Z,100408.13
2023-03-26T22:15:19.223Z,100412.78
2023-03-26T22:17:53.624Z,100361.69
2023-03-26T22:20:24.516Z,100395.97
2023-03-26T22:22:55.247Z,100397.81
2023-03-26T22:25:24.524Z,100391.88
2023-03-26T22:27:52.778Z,100387.56
2023-03-26T22:30:21.850Z,100372.16
2023-03-26T22:32:50.210Z,100384.16
2023-03-26T22:35:18.165Z,100392.50
2023-03-26T22:37:46.013Z,100385.66
2023-03-26T22:40:15.207Z,100383.59
2023-03-26T22:42:43.206Z,100391.66
2023-03-26T22:45:12.414Z,100390.25
2023-03-26T22:47:40.892Z,100401.41
2023-03-26T22:50:09.870Z,100404.97
2023-03-26T22:52:39.689Z,100411.44
2023-03-26T22:55:08.706Z,100404.28
2023-03-26T22:57:37.702Z,100404.22
2023-03-26T23:00:16.181Z,100407.84
2023-03-26T23:02:45.814Z,100400.38
2023-03-26T23:05:13.919Z,100408.13
2023-03-26T23:07:42.510Z,100406.75
2023-03-26T23:10:11.584Z,100367.38
2023-03-26T23:12:41.393Z,100417.34
2023-03-26T23:15:10.524Z,100415.34
2023-03-26T23:17:38.615Z,100413.91
2023-03-26T23:20:14.633Z,100412.75
2023-03-26T23:22:44.059Z,100408.06
2023-03-26T23:25:12.606Z,100423.91
2023-03-26T23:27:41.706Z,100431.09
2023-03-26T23:30:11.749Z,100398.69
2023-03-26T23:32:39.621Z,100421.50
2023-03-26T23:35:08.310Z,100409.53
2023-03-26T23:37:36.785Z,100414.03
2023-03-26T23:40:09.887Z,100422.47
2023-03-26T23:42:38.318Z,100419.72
2023-03-26T23:45:09.014Z,100416.25
2023-03-26T23:47:37.373Z,100408.41
2023-03-26T23:50:06.298Z,100400.59
2023-03-26T23:52:33.816Z,100403.31
2023-03-26T23:55:01.576Z,100408.19
2023-03-26T23:57:30.479Z,100403.91
2023-03-26T23:59:58.416Z,100406.47
